createdAt,value
2022-10-19T00:01:04.877Z,8.62
2022-10-19T00:03:32.531Z,8.61
2022-10-19T00:05:59.994Z,8.49
2022-10-19T00:08:27.385Z,8.43
2022-10-19T00:10:54.757Z,8.42
2022-10-19T00:13:22.145Z,8.31
2022-10-19T00:15:50.802Z,8.35
2022-10-19T00:18:18.186Z,8.07
2022-10-19T00:20:45.542Z,8.12
2022-10-19T00:23:12.909Z,8.04
2022-10-19T00:25:40.225Z,7.92
2022-10-19T00:28:07.633Z,7.94
2022-10-19T00:30:37.890Z,8.01
2022-10-19T00:33:06.716Z,8.04
2022-10-19T00:35:34.069Z,7.91
2022-10-19T00:38:01.394Z,7.16
2022-10-19T00:40:28.761Z,7.41
2022-10-19T00:42:56.193Z,7.46
2022-10-19T00:45:23.562Z,7.48
2022-10-19T00:47:51.443Z,7.34
2022-10-19T00:50:20.381Z,7.38
2022-10-19T00:52:47.819Z,7.34
2022-10-19T00:55:15.225Z,7.33
2022-10-19T00:57:42.699Z,7.29
2022-10-19T01:00:10.785Z,7.30
2022-10-19T01:02:38.225Z,7.38
2022-10-19T01:05:06.459Z,7.31
2022-10-19T01:07:35.400Z,7.24
2022-10-19T01:10:03.130Z,7.20
2022-10-19T01:12:47.994Z,7.17
2022-10-19T01:15:23.588Z,7.18
2022-10-19T01:17:55.885Z,7.13
2022-10-19T01:20:34.159Z,6.98
2022-10-19T01:23:19.113Z,7.19
2022-10-19T01:25:55.451Z,7.34
2022-10-19T01:28:35.869Z,7.44
2022-10-19T01:31:10.221Z,7.58
2022-10-19T01:33:43.149Z,7.72
2022-10-19T01:36:18.066Z,7.79
2022-10-19T01:38:52.260Z,7.89
2022-10-19T01:41:24.159Z,7.95
2022-10-19T01:43:57.776Z,7.84
2022-10-19T01:46:30.484Z,7.75
2022-10-19T01:49:04.185Z,7.79
2022-10-19T01:51:34.336Z,7.79
2022-10-19T01:54:04.200Z,7.80
2022-10-19T01:56:32.512Z,7.80
2022-10-19T01:59:01.933Z,7.84
2022-10-19T02:01:32.190Z,7.89
2022-10-19T02:03:59.639Z,7.91
2022-10-19T02:06:27.168Z,7.83
2022-10-19T02:08:55.281Z,7.75
2022-10-19T02:11:23.778Z,7.71
2022-10-19T02:13:53.935Z,7.68
2022-10-19T02:16:25.045Z,7.69
2022-10-19T02:18:54.999Z,7.60
2022-10-19T02:21:22.631Z,7.54
2022-10-19T02:23:51.928Z,7.42
2022-10-19T02:26:21.762Z,7.21
2022-10-19T02:28:49.480Z,7.22
2022-10-19T02:31:16.972Z,7.11
2022-10-19T02:33:44.406Z,7.09
2022-10-19T02:36:13.197Z,7.10
2022-10-19T02:38:41.581Z,7.11
2022-10-19T02:41:14.842Z,7.09
2022-10-19T02:43:43.858Z,7.04
2022-10-19T02:46:14.929Z,7.01
2022-10-19T02:48:42.857Z,7.01
2022-10-19T02:51:29.575Z,6.98
2022-10-19T02:53:59.018Z,6.90
2022-10-19T02:56:28.713Z,6.96
2022-10-19T02:58:56.400Z,7.00
2022-10-19T03:01:24.630Z,6.98
2022-10-19T03:03:52.009Z,6.92
2022-10-19T03:06:19.352Z,6.85
2022-10-19T03:08:51.760Z,6.81
2022-10-19T03:11:19.117Z,6.84
2022-10-19T03:16:19.062Z,6.78
2022-10-19T03:18:48.881Z,6.89
2022-10-19T03:21:16.238Z,6.91
2022-10-19T03:23:43.547Z,7.09
2022-10-19T03:26:16.271Z,7.25
2022-10-19T03:28:43.798Z,7.29
2022-10-19T03:31:11.381Z,7.38
2022-10-19T03:33:38.840Z,7.56
2022-10-19T03:36:17.240Z,7.62
2022-10-19T03:38:44.722Z,7.58
2022-10-19T03:41:13.497Z,7.82
2022-10-19T03:43:41.929Z,7.88
2022-10-19T03:46:09.481Z,8.11
2022-10-19T03:48:37.007Z,8.03
2022-10-19T03:51:07.703Z,8.27
2022-10-19T03:53:35.418Z,8.16
2022-10-19T03:56:04.102Z,8.39
2022-10-19T03:58:36.500Z,8.54
2022-10-19T04:01:07.735Z,8.56
2022-10-19T04:06:04.589Z,8.65
2022-10-19T04:08:32.185Z,8.72
2022-10-19T04:11:01.253Z,8.66
2022-10-19T04:13:28.655Z,8.78
2022-10-19T04:15:57.425Z,8.90
2022-10-19T04:18:24.773Z,9.06
2022-10-19T04:20:56.834Z,9.11
2022-10-19T04:23:24.809Z,9.20
2022-10-19T04:25:52.117Z,9.24
2022-10-19T04:28:19.473Z,9.20
2022-10-19T04:30:47.758Z,9.27
2022-10-19T04:33:16.458Z,9.28
2022-10-19T04:35:44.017Z,9.24
2022-10-19T04:38:11.375Z,9.29
2022-10-19T04:40:38.949Z,9.17
2022-10-19T04:43:06.520Z,9.15
2022-10-19T04:45:36.220Z,9.18
2022-10-19T04:48:03.661Z,9.24
2022-10-19T04:50:32.337Z,9.26
2022-10-19T04:52:59.677Z,9.18
2022-10-19T04:55:27.014Z,9.04
2022-10-19T04:57:54.594Z,9.06
2022-10-19T05:00:22.225Z,9.07
2022-10-19T05:02:49.561Z,9.10
2022-10-19T05:05:16.913Z,9.20
2022-10-19T05:07:45.565Z,9.06
2022-10-19T05:10:13.040Z,9.20
2022-10-19T05:12:40.378Z,9.25
2022-10-19T05:15:08.921Z,9.23
2022-10-19T05:17:36.677Z,9.00
2022-10-19T05:20:04.705Z,9.14
2022-10-19T05:22:32.039Z,9.28
2022-10-19T05:25:00.693Z,9.35
2022-10-19T05:27:28.345Z,9.31
2022-10-19T05:29:55.683Z,9.46
2022-10-19T05:32:23.073Z,9.60
2022-10-19T05:34:50.430Z,9.58
2022-10-19T05:37:17.884Z,9.56
2022-10-19T05:39:45.255Z,9.63
2022-10-19T05:42:13.916Z,9.65
2022-10-19T05:44:41.480Z,9.76
2022-10-19T05:47:08.832Z,9.74
2022-10-19T05:49:36.165Z,9.74
2022-10-19T05:52:03.612Z,9.84
2022-10-19T05:54:31.009Z,9.94
2022-10-19T05:56:58.361Z,9.97
2022-10-19T05:59:27.051Z,10.04
2022-10-19T06:01:54.528Z,10.11
2022-10-19T06:04:21.946Z,10.16
2022-10-19T06:06:49.295Z,10.21
2022-10-19T06:09:16.641Z,10.21
2022-10-19T06:11:44.263Z,10.23
2022-10-19T06:14:13.797Z,10.07
2022-10-19T06:16:42.664Z,10.02
2022-10-19T06:19:10.093Z,10.15
2022-10-19T06:21:39.607Z,10.15
2022-10-19T06:24:12.794Z,10.14
2022-10-19T06:26:40.241Z,10.15
2022-10-19T06:29:07.616Z,10.16
2022-10-19T06:31:36.650Z,10.16
2022-10-19T06:34:05.524Z,10.16
2022-10-19T06:36:33.433Z,10.20
2022-10-19T06:39:02.409Z,10.20
2022-10-19T06:41:30.261Z,10.20
2022-10-19T06:44:06.114Z,10.20
2022-10-19T06:46:33.810Z,10.37
2022-10-19T06:49:02.657Z,10.41
2022-10-19T06:51:33.883Z,10.48
2022-10-19T06:54:01.728Z,10.51
2022-10-19T06:56:29.306Z,10.49
2022-10-19T06:58:56.663Z,10.60
2022-10-19T07:01:24.668Z,10.79
2022-10-19T07:03:52.561Z,10.78
2022-10-19T07:06:20.601Z,10.82
2022-10-19T07:08:49.596Z,10.95
2022-10-19T07:11:19.508Z,11.06
2022-10-19T07:13:46.907Z,11.08
2022-10-19T07:16:19.651Z,11.10
2022-10-19T07:18:49.876Z,11.00
2022-10-19T07:21:17.770Z,11.01
2022-10-19T07:23:47.120Z,11.05
2022-10-19T07:26:17.352Z,11.23
2022-10-19T07:28:46.862Z,11.43
2022-10-19T07:31:17.733Z,11.67
2022-10-19T07:33:45.285Z,11.67
2022-10-19T07:36:14.004Z,11.63
2022-10-19T07:38:41.821Z,11.74
2022-10-19T07:41:12.642Z,11.81
2022-10-19T07:43:41.632Z,11.88
2022-10-19T07:46:11.974Z,12.08
2022-10-19T07:48:39.445Z,12.30
2022-10-19T07:51:08.450Z,12.40
2022-10-19T07:53:36.345Z,12.48
2022-10-19T07:56:04.999Z,12.64
2022-10-19T07:58:32.587Z,12.84
2022-10-19T08:01:05.149Z,12.98
2022-10-19T08:06:20.494Z,13.07
2022-10-19T08:08:48.817Z,13.17
2022-10-19T08:11:18.165Z,13.08
2022-10-19T08:13:46.412Z,13.23
2022-10-19T08:16:26.504Z,13.36
2022-10-19T08:18:57.704Z,13.28
2022-10-19T08:21:25.417Z,13.38
2022-10-19T08:23:52.835Z,13.40
2022-10-19T08:26:20.380Z,13.12
2022-10-19T08:28:47.799Z,13.43
2022-10-19T08:31:16.979Z,13.34
2022-10-19T08:33:47.711Z,13.40
2022-10-19T08:36:17.463Z,13.64
2022-10-19T08:38:44.981Z,13.84
2022-10-19T08:41:24.468Z,13.86
2022-10-19T08:44:12.599Z,14.00
2022-10-19T08:46:47.617Z,14.09
2022-10-19T08:49:21.274Z,14.39
2022-10-19T08:51:52.421Z,14.58
2022-10-19T08:54:20.201Z,14.78
2022-10-19T08:56:51.969Z,14.98
2022-10-19T08:59:27.603Z,14.91
2022-10-19T09:01:56.977Z,15.10
2022-10-19T09:04:29.686Z,15.04
2022-10-19T09:07:08.023Z,15.16
2022-10-19T09:09:37.109Z,15.20
2022-10-19T09:12:07.417Z,15.10
2022-10-19T09:14:37.291Z,14.93
2022-10-19T09:17:11.463Z,14.91
2022-10-19T09:19:40.194Z,14.91
2022-10-19T09:22:11.173Z,15.04
2022-10-19T09:24:43.615Z,14.84
2022-10-19T09:27:17.454Z,14.85
2022-10-19T09:29:47.099Z,15.03
2022-10-19T09:32:19.017Z,14.75
2022-10-19T09:34:51.083Z,14.38
2022-10-19T09:37:25.017Z,14.39
2022-10-19T09:39:55.573Z,14.58
2022-10-19T09:42:25.588Z,14.53
2022-10-19T09:44:53.409Z,14.65
2022-10-19T09:47:34.475Z,14.58
2022-10-19T09:50:16.799Z,15.10
2022-10-19T09:52:45.133Z,14.96
2022-10-19T09:55:21.633Z,14.96
2022-10-19T09:57:50.507Z,14.70
2022-10-19T10:00:19.918Z,14.68
2022-10-19T10:02:51.431Z,14.49
2022-10-19T10:05:21.178Z,14.42
2022-10-19T10:07:48.945Z,14.65
2022-10-19T10:10:23.731Z,14.64
2022-10-19T10:12:54.213Z,14.87
2022-10-19T10:15:24.926Z,15.00
2022-10-19T10:17:52.971Z,15.03
2022-10-19T10:20:27.616Z,15.02
2022-10-19T10:22:58.267Z,14.73
2022-10-19T10:25:28.289Z,14.40
2022-10-19T10:27:58.929Z,14.44
2022-10-19T10:30:28.090Z,14.51
2022-10-19T10:33:04.660Z,14.51
2022-10-19T10:35:49.025Z,14.68
2022-10-19T10:38:19.112Z,15.06
2022-10-19T10:40:51.354Z,14.79
2022-10-19T10:43:20.937Z,14.94
2022-10-19T10:45:51.205Z,14.73
2022-10-19T10:48:28.250Z,15.05
2022-10-19T10:50:57.348Z,14.77
2022-10-19T10:53:37.088Z,14.48
2022-10-19T10:56:06.193Z,14.58
2022-10-19T10:58:47.590Z,14.58
2022-10-19T11:01:20.921Z,14.62
2022-10-19T11:03:52.352Z,14.48
2022-10-19T11:09:02.780Z,14.51
2022-10-19T11:11:34.805Z,14.76
2022-10-19T11:14:16.345Z,14.56
2022-10-19T11:16:46.035Z,14.93
2022-10-19T11:19:16.647Z,14.94
2022-10-19T11:21:52.421Z,15.13
2022-10-19T11:24:23.975Z,15.14
2022-10-19T11:27:00.737Z,15.35
2022-10-19T11:29:51.805Z,15.45
2022-10-19T11:32:27.580Z,15.10
2022-10-19T11:35:07.846Z,15.08
2022-10-19T11:37:49.453Z,15.11
2022-10-19T11:40:22.358Z,15.30
2022-10-19T11:42:55.739Z,15.12
2022-10-19T11:45:29.950Z,15.23
2022-10-19T11:48:09.431Z,15.06
2022-10-19T11:50:46.619Z,15.51
2022-10-19T11:53:30.413Z,15.44
2022-10-19T11:56:02.349Z,15.94
2022-10-19T11:58:52.826Z,15.90
2022-10-19T12:01:31.558Z,15.43
2022-10-19T12:04:10.069Z,15.27
2022-10-19T12:06:40.970Z,15.70
2022-10-19T12:09:19.876Z,15.61
2022-10-19T12:11:56.713Z,15.72
2022-10-19T12:14:26.746Z,15.50
2022-10-19T12:16:57.465Z,15.59
2022-10-19T12:19:26.779Z,15.71
2022-10-19T12:21:55.275Z,15.36
2022-10-19T12:24:25.661Z,15.52
2022-10-19T12:26:54.381Z,15.16
2022-10-19T12:29:23.885Z,15.01
2022-10-19T12:31:51.818Z,14.84
2022-10-19T12:34:27.909Z,15.05
2022-10-19T12:36:58.062Z,14.90
2022-10-19T12:39:31.669Z,14.73
2022-10-19T12:42:04.402Z,14.76
2022-10-19T12:44:46.256Z,14.62
2022-10-19T12:47:17.736Z,14.70
2022-10-19T12:49:46.998Z,14.89
2022-10-19T12:52:16.514Z,14.62
2022-10-19T12:54:45.430Z,14.89
2022-10-19T12:57:26.962Z,14.87
2022-10-19T13:00:02.710Z,14.91
2022-10-19T13:05:06.313Z,14.64
2022-10-19T13:07:35.950Z,14.52
2022-10-19T13:10:06.998Z,14.58
2022-10-19T13:12:46.442Z,14.69
2022-10-19T13:15:57.029Z,14.39
2022-10-19T13:19:07.104Z,14.39
2022-10-19T13:21:54.601Z,14.28
2022-10-19T13:24:31.283Z,14.04
2022-10-19T13:27:39.285Z,13.99
2022-10-19T13:30:47.486Z,13.90
2022-10-19T13:33:43.078Z,13.80
2022-10-19T13:36:11.252Z,13.88
2022-10-19T13:38:41.379Z,13.82
2022-10-19T13:41:18.199Z,13.81
2022-10-19T13:44:02.870Z,13.83
2022-10-19T13:46:55.361Z,13.98
2022-10-19T13:49:57.703Z,14.34
2022-10-19T13:52:39.181Z,14.20
2022-10-19T13:55:35.302Z,14.34
2022-10-19T13:58:32.176Z,14.42
2022-10-19T14:01:09.738Z,14.32
2022-10-19T14:03:51.084Z,14.24
2022-10-19T14:06:28.401Z,14.21
2022-10-19T14:09:23.410Z,13.80
2022-10-19T14:11:52.847Z,13.56
2022-10-19T14:14:22.313Z,13.47
2022-10-19T14:16:58.268Z,13.53
2022-10-19T14:19:30.683Z,13.49
2022-10-19T14:22:00.698Z,13.40
2022-10-19T14:24:31.018Z,13.35
2022-10-19T14:26:58.760Z,13.31
2022-10-19T14:29:26.179Z,13.48
2022-10-19T14:31:53.897Z,13.34
2022-10-19T14:34:21.422Z,13.41
2022-10-19T14:36:50.320Z,13.36
2022-10-19T14:39:31.373Z,13.58
2022-10-19T14:42:04.288Z,13.46
2022-10-19T14:44:40.677Z,13.22
2022-10-19T14:47:17.788Z,13.26
2022-10-19T14:49:45.306Z,13.26
2022-10-19T14:52:15.599Z,13.38
2022-10-19T14:54:46.621Z,13.04
2022-10-19T14:57:16.519Z,13.03
2022-10-19T14:59:46.198Z,13.08
2022-10-19T15:02:18.788Z,12.89
2022-10-19T15:04:46.294Z,12.87
2022-10-19T15:07:19.055Z,12.75
2022-10-19T15:09:54.094Z,12.73
2022-10-19T15:12:24.878Z,12.61
2022-10-19T15:14:52.373Z,12.64
2022-10-19T15:17:26.057Z,12.52
2022-10-19T15:19:55.550Z,12.48
2022-10-19T15:22:26.837Z,12.32
2022-10-19T15:25:16.237Z,12.25
2022-10-19T15:27:47.118Z,12.22
2022-10-19T15:30:25.993Z,12.16
2022-10-19T15:32:57.669Z,11.94
2022-10-19T15:35:29.834Z,11.94
2022-10-19T15:38:01.569Z,11.91
2022-10-19T15:40:33.623Z,11.80
2022-10-19T15:43:01.266Z,11.90
2022-10-19T15:45:31.994Z,11.93
2022-10-19T15:48:20.030Z,11.89
2022-10-19T15:50:48.889Z,11.60
2022-10-19T15:53:16.463Z,11.51
2022-10-19T15:55:45.225Z,11.55
2022-10-19T15:58:13.804Z,11.46
2022-10-19T16:00:42.487Z,11.37
2022-10-19T16:03:10.071Z,11.36
2022-10-19T16:05:37.621Z,11.31
2022-10-19T16:08:08.878Z,11.35
2022-10-19T16:10:39.109Z,11.25
2022-10-19T16:13:07.814Z,11.15
2022-10-19T16:15:35.422Z,11.00
2022-10-19T16:18:02.872Z,11.10
2022-10-19T16:20:30.574Z,10.96
2022-10-19T16:22:58.557Z,10.91
2022-10-19T16:25:26.224Z,10.75
2022-10-19T16:27:53.624Z,10.76
2022-10-19T16:30:22.353Z,10.64
2022-10-19T16:32:50.142Z,10.65
2022-10-19T16:35:17.710Z,10.61
2022-10-19T16:37:45.331Z,10.58
2022-10-19T16:40:12.935Z,10.52
2022-10-19T16:42:40.373Z,10.42
2022-10-19T16:45:08.984Z,10.35
2022-10-19T16:47:37.682Z,10.16
2022-10-19T16:50:06.654Z,10.04
2022-10-19T16:52:37.670Z,9.84
2022-10-19T16:55:06.258Z,9.63
2022-10-19T16:57:33.644Z,9.51
2022-10-19T17:00:01.178Z,9.27
2022-10-19T17:02:28.594Z,9.16
2022-10-19T17:04:57.356Z,9.13
2022-10-19T17:07:25.214Z,9.08
2022-10-19T17:09:54.825Z,9.07
2022-10-19T17:12:22.546Z,8.66
2022-10-19T17:14:51.132Z,8.54
2022-10-19T17:17:18.537Z,8.54
2022-10-19T17:19:45.980Z,8.58
2022-10-19T17:22:14.985Z,8.43
2022-10-19T17:24:42.451Z,8.34
2022-10-19T17:27:09.890Z,7.87
2022-10-19T17:29:37.282Z,7.71
2022-10-19T17:32:04.918Z,7.79
2022-10-19T17:34:32.519Z,7.89
2022-10-19T17:36:59.945Z,7.84
2022-10-19T17:39:29.936Z,7.79
2022-10-19T17:42:01.142Z,7.54
2022-10-19T17:44:29.893Z,7.60
2022-10-19T17:46:57.308Z,7.67
2022-10-19T17:49:24.765Z,7.63
2022-10-19T17:51:53.099Z,7.52
2022-10-19T17:54:20.575Z,7.59
2022-10-19T17:56:49.293Z,7.59
2022-10-19T17:59:16.769Z,7.55
2022-10-19T18:01:46.153Z,7.34
2022-10-19T18:04:13.608Z,7.27
2022-10-19T18:06:41.093Z,7.36
2022-10-19T18:09:10.018Z,7.31
2022-10-19T18:11:40.595Z,7.22
2022-10-19T18:14:10.734Z,7.21
2022-10-19T18:16:40.629Z,7.15
2022-10-19T18:19:09.301Z,6.90
2022-10-19T18:21:39.633Z,6.95
2022-10-19T18:24:11.303Z,7.04
2022-10-19T18:26:41.761Z,7.17
2022-10-19T18:29:12.525Z,7.15
2022-10-19T18:31:40.977Z,7.06
2022-10-19T18:34:09.666Z,6.48
2022-10-19T18:36:37.150Z,6.56
2022-10-19T18:39:06.096Z,6.67
2022-10-19T18:41:33.533Z,6.78
2022-10-19T18:44:03.506Z,6.91
2022-10-19T18:46:33.474Z,6.95
2022-10-19T18:49:01.146Z,7.04
2022-10-19T18:51:29.056Z,7.13
2022-10-19T18:53:56.663Z,6.98
2022-10-19T18:56:25.088Z,6.86
2022-10-19T18:58:52.709Z,7.03
2022-10-19T19:01:22.744Z,7.13
2022-10-19T19:03:52.801Z,7.25
2022-10-19T19:06:22.286Z,7.27
2022-10-19T19:08:49.759Z,7.43
2022-10-19T19:11:18.389Z,7.55
2022-10-19T19:13:48.450Z,7.71
2022-10-19T19:16:15.836Z,7.79
2022-10-19T19:18:43.661Z,7.88
2022-10-19T19:21:17.257Z,7.94
2022-10-19T19:23:45.083Z,8.03
2022-10-19T19:26:13.758Z,8.12
2022-10-19T19:28:42.866Z,8.15
2022-10-19T19:31:15.842Z,8.27
2022-10-19T19:33:43.421Z,8.21
2022-10-19T19:36:13.453Z,8.36
2022-10-19T19:38:42.173Z,8.38
2022-10-19T19:41:11.988Z,8.37
2022-10-19T19:43:40.240Z,8.31
2022-10-19T19:46:09.440Z,8.38
2022-10-19T19:48:37.191Z,8.38
2022-10-19T19:51:04.838Z,8.35
2022-10-19T19:53:32.246Z,8.40
2022-10-19T19:56:00.943Z,8.43
2022-10-19T19:58:28.337Z,8.37
2022-10-19T20:00:55.709Z,8.38
2022-10-19T20:03:23.122Z,8.46
2022-10-19T20:05:50.497Z,8.43
2022-10-19T20:08:17.881Z,8.40
2022-10-19T20:10:45.305Z,8.50
2022-10-19T20:13:14.017Z,8.43
2022-10-19T20:15:41.421Z,8.39
2022-10-19T20:18:09.510Z,8.40
2022-10-19T20:20:36.877Z,8.31
2022-10-19T20:23:04.672Z,8.27
2022-10-19T20:25:32.248Z,8.34
2022-10-19T20:27:59.705Z,8.41
2022-10-19T20:30:28.427Z,8.36
2022-10-19T20:32:55.813Z,8.39
2022-10-19T20:35:23.164Z,8.24
2022-10-19T20:37:50.858Z,8.26
2022-10-19T20:40:18.853Z,8.26
2022-10-19T20:42:46.263Z,8.14
2022-10-19T20:45:13.869Z,8.25
2022-10-19T20:47:42.609Z,8.17
2022-10-19T20:50:10.471Z,8.09
2022-10-19T20:52:39.977Z,8.06
2022-10-19T20:55:07.955Z,8.11
2022-10-19T20:57:35.330Z,8.03
2022-10-19T21:00:02.779Z,7.91
2022-10-19T21:02:30.142Z,7.82
2022-10-19T21:04:58.822Z,7.80
2022-10-19T21:07:28.520Z,7.79
2022-10-19T21:09:55.921Z,7.81
2022-10-19T21:12:23.263Z,7.84
2022-10-19T21:14:50.621Z,7.75
2022-10-19T21:17:18.021Z,7.68
2022-10-19T21:19:45.387Z,7.71
2022-10-19T21:22:14.106Z,7.69
2022-10-19T21:24:41.522Z,7.65
2022-10-19T21:27:09.538Z,7.59
2022-10-19T21:29:37.573Z,7.63
2022-10-19T21:32:05.213Z,7.60
2022-10-19T21:34:32.966Z,7.61
2022-10-19T21:37:00.425Z,7.59
2022-10-19T21:39:29.085Z,7.57
2022-10-19T21:41:56.980Z,7.54
2022-10-19T21:44:24.399Z,7.56
2022-10-19T21:46:51.870Z,7.63
2022-10-19T21:49:19.687Z,7.55
2022-10-19T21:51:48.373Z,7.43
2022-10-19T21:54:17.397Z,7.47
2022-10-19T21:56:46.416Z,7.48
2022-10-19T21:59:14.076Z,7.46
2022-10-19T22:01:42.023Z,7.49
2022-10-19T22:04:12.182Z,7.54
2022-10-19T22:06:39.857Z,7.40
2022-10-19T22:09:09.359Z,7.44
2022-10-19T22:11:36.866Z,7.33
2022-10-19T22:14:05.902Z,7.38
2022-10-19T22:16:35.027Z,7.33
2022-10-19T22:19:04.188Z,7.35
2022-10-19T22:21:33.004Z,7.35
2022-10-19T22:24:02.359Z,7.36
2022-10-19T22:26:31.772Z,7.32
2022-10-19T22:29:00.360Z,7.31
2022-10-19T22:31:30.895Z,7.36
2022-10-19T22:33:58.334Z,7.35
2022-10-19T22:36:28.592Z,7.28
2022-10-19T22:38:56.007Z,7.16
2022-10-19T22:41:23.362Z,7.19
2022-10-19T22:43:50.695Z,7.20
2022-10-19T22:46:20.962Z,7.16
2022-10-19T22:48:49.641Z,7.15
2022-10-19T22:51:17.001Z,7.15
2022-10-19T22:53:44.332Z,7.17
2022-10-19T22:56:12.609Z,7.20
2022-10-19T22:58:40.039Z,7.09
2022-10-19T23:01:09.315Z,7.12
2022-10-19T23:03:37.527Z,7.13
2022-10-19T23:06:06.501Z,7.07
2022-10-19T23:08:33.981Z,7.10
2022-10-19T23:11:01.614Z,7.11
2022-10-19T23:13:28.995Z,7.10
2022-10-19T23:15:56.369Z,7.06
2022-10-19T23:18:23.982Z,7.08
2022-10-19T23:20:55.307Z,7.00
2022-10-19T23:23:24.261Z,6.99
2022-10-19T23:25:59.231Z,7.05
2022-10-19T23:28:26.926Z,7.04
2022-10-19T23:30:56.441Z,6.98
2022-10-19T23:33:23.814Z,6.96
2022-10-19T23:35:51.388Z,7.02
2022-10-19T23:38:19.225Z,6.99
2022-10-19T23:40:47.890Z,6.96
2022-10-19T23:43:15.225Z,7.00
2022-10-19T23:45:42.597Z,6.99
2022-10-19T23:48:09.946Z,7.01
2022-10-19T23:50:37.301Z,6.98
2022-10-19T23:53:04.653Z,7.03
2022-10-19T23:55:32.165Z,6.89
2022-10-19T23:58:00.893Z,6.92
